Darstellungsparameter: Aktuell verwendete Einstellungen:
Skalierung der Graphiken ... ?
xyx+y,   Skalierungsfaktor:      Skalierung: Modus: x, Faktor: 1
Darstellungszeitraum ... ?
Vom - - bis: - -   Zeitraum: 30.04.2021 - 02.05.2021
Min/Max/Avg-Anzeige ... ?
Zeige MMA aktuell
Zeige MMA Monat
Zeige MMA alles
Zeige --A aktuell
Zeige --A Monat
Zeige --A alles
Keine MMA-Anzeige
MMA:
Average (ber die Originaldaten)
MMA-Basis: 30.04.2021 - 02.05.2021
Quicknavigation für Darstellung... ?
Tage:      1T, 2T, 3T, 5T -1T -2T -3T -5T +1T +2T +3T +5T
Wochen: 1W, 2W, 3W -1W -2W -3W +1W +2W +3W
Monate: 1M, 3M, 6M -1M -3M -6M +1M +3M +6M
Jahre:    1J, 3J, 5J, 10J -1J -3J -5J -10J +1J +3J +5J +10J
Nutze für die Darstellung ... ?
Originaldaten oder Mittelwerte auf ...
Stundenbasis Tagesbasis Wochenbasis
Monatsbasis Jahresbasis      Datenbasis: Original-Daten
Darstellen als:
Statistik (Auto) Statistik J:M      Darstellung:
Zur Graphik,    zurück zur Übersicht aller Sensoren.
 
Tabellarische Datenbersicht: ?
 
Sensor: Nr:Datum:Temp:Abs-Feuchte:Windchill:Wind:
Aussen-T/F 1 30-04-2021 00:00:00 5.3 C 5.61 g/m*3 5.3 C 0 km/h
2 30-04-2021 00:05:00 5.3 C 5.61 g/m*3 5.3 C 0 km/h
3 30-04-2021 00:10:00 5.2 C 5.58 g/m*3 5.2 C 0 km/h
4 30-04-2021 00:15:00 5.2 C 5.65 g/m*3 5.2 C 1.6 km/h
5 30-04-2021 00:20:00 5.2 C 5.65 g/m*3 5.2 C 1.6 km/h
6 30-04-2021 00:25:00 5.1 C 5.61 g/m*3 5.1 C 4.8 km/h
7 30-04-2021 00:30:00 5 C 5.57 g/m*3 5 C 4.8 km/h
8 30-04-2021 00:35:00 4.9 C 5.6 g/m*3 4.9 C 3.2 km/h
9 30-04-2021 00:40:00 4.9 C 5.6 g/m*3 4.9 C 0 km/h
10 30-04-2021 00:45:00 4.8 C 5.57 g/m*3 4.8 C 0 km/h
11 30-04-2021 00:50:00 4.7 C 5.53 g/m*3 4.7 C 1.6 km/h
12 30-04-2021 00:55:00 4.6 C 5.49 g/m*3 4.6 C 3.2 km/h
13 30-04-2021 01:00:00 4.4 C 5.48 g/m*3 4.4 C 3.2 km/h
14 30-04-2021 01:05:00 4.4 C 5.48 g/m*3 4.4 C 3.2 km/h
15 30-04-2021 01:10:00 4.3 C 5.51 g/m*3 4.3 C 3.2 km/h
16 30-04-2021 01:15:00 4.3 C 5.51 g/m*3 4.3 C 1.6 km/h
17 30-04-2021 01:20:00 4.3 C 5.51 g/m*3 4.3 C 1.6 km/h
18 30-04-2021 01:25:00 4.2 C 5.48 g/m*3 4.2 C 0 km/h
19 30-04-2021 01:30:00 4.2 C 5.48 g/m*3 4.2 C 0 km/h
20 30-04-2021 01:35:00 4.1 C 5.5 g/m*3 4.1 C 1.6 km/h
21 30-04-2021 01:40:00 4.1 C 5.5 g/m*3 4.1 C 3.2 km/h
22 30-04-2021 01:45:00 4.1 C 5.5 g/m*3 4.1 C 4.8 km/h
23 30-04-2021 01:50:00 4 C 5.47 g/m*3 4 C 1.6 km/h
24 30-04-2021 01:55:00 3.9 C 5.43 g/m*3 3.9 C 1.6 km/h
25 30-04-2021 02:00:00 3.8 C 5.4 g/m*3 3.8 C 1.6 km/h
Sensor: Nr:Datum:Temp:Abs-Feuchte:Windchill:Wind:
Aussen-T/F 26 30-04-2021 02:05:00 3.8 C 5.4 g/m*3 3.8 C 1.6 km/h
27 30-04-2021 02:10:00 3.7 C 5.42 g/m*3 3.7 C 1.6 km/h
28 30-04-2021 02:15:00 3.6 C 5.39 g/m*3 3.6 C 0 km/h
29 30-04-2021 02:20:00 3.6 C 5.39 g/m*3 3.6 C 1.6 km/h
30 30-04-2021 02:25:00 3.6 C 5.39 g/m*3 3.6 C 1.6 km/h
31 30-04-2021 02:30:00 3.5 C 5.35 g/m*3 3.5 C 1.6 km/h
32 30-04-2021 02:35:00 3.5 C 5.41 g/m*3 3.5 C 1.6 km/h
33 30-04-2021 02:40:00 3.4 C 5.37 g/m*3 3.4 C 1.6 km/h
34 30-04-2021 02:45:00 3.4 C 5.37 g/m*3 3.4 C 1.6 km/h
35 30-04-2021 02:50:00 3.3 C 5.34 g/m*3 3.3 C 0 km/h
36 30-04-2021 02:55:00 3.2 C 5.3 g/m*3 3.2 C 0 km/h
37 30-04-2021 03:00:00 3.2 C 5.3 g/m*3 3.2 C 0 km/h
38 30-04-2021 03:05:00 3.1 C 5.27 g/m*3 3.1 C 4.8 km/h
39 30-04-2021 03:10:00 3.1 C 5.33 g/m*3 3.1 C 3.2 km/h
40 30-04-2021 03:15:00 3.1 C 5.33 g/m*3 3.1 C 3.2 km/h
41 30-04-2021 03:20:00 3.1 C 5.33 g/m*3 3.1 C 1.6 km/h
42 30-04-2021 03:25:00 3.1 C 5.33 g/m*3 3.1 C 0 km/h
43 30-04-2021 03:30:00 3 C 5.29 g/m*3 3 C 0 km/h
44 30-04-2021 03:35:00 2.9 C 5.26 g/m*3 2.9 C 0 km/h
45 30-04-2021 03:40:00 2.9 C 5.26 g/m*3 2.9 C 1.6 km/h
46 30-04-2021 03:45:00 2.9 C 5.26 g/m*3 2.9 C 3.2 km/h
47 30-04-2021 03:50:00 2.8 C 5.22 g/m*3 2.8 C 3.2 km/h
48 30-04-2021 03:55:00 2.8 C 5.22 g/m*3 2.8 C 0 km/h
49 30-04-2021 04:00:00 2.7 C 5.19 g/m*3 2.7 C 0 km/h
50 30-04-2021 04:05:00 2.7 C 5.19 g/m*3 2.7 C 4.8 km/h
Sensor: Nr:Datum:Temp:Abs-Feuchte:Windchill:Wind:
Aussen-T/F 51 30-04-2021 04:10:00 2.6 C 5.21 g/m*3 2.6 C 0 km/h
52 30-04-2021 04:15:00 2.5 C 5.17 g/m*3 2.5 C 0 km/h
53 30-04-2021 04:20:00 2.4 C 5.14 g/m*3 2.4 C 0 km/h
54 30-04-2021 04:25:00 2.4 C 5.14 g/m*3 2.4 C 0 km/h
55 30-04-2021 04:30:00 2.3 C 5.1 g/m*3 2.3 C 0 km/h
56 30-04-2021 04:35:00 2.2 C 5.07 g/m*3 2.2 C 1.6 km/h
57 30-04-2021 04:40:00 2.1 C 5.04 g/m*3 2.1 C 0 km/h
58 30-04-2021 04:45:00 1.9 C 4.97 g/m*3 1.9 C 0 km/h
59 30-04-2021 04:50:00 1.8 C 4.93 g/m*3 1.8 C 1.6 km/h
60 30-04-2021 04:55:00 1.9 C 5.02 g/m*3 0.01 C 6.4 km/h
61 30-04-2021 05:00:00 2 C 5.06 g/m*3 2 C 1.6 km/h
62 30-04-2021 05:05:00 2.1 C 5.09 g/m*3 2.1 C 0 km/h
63 30-04-2021 05:10:00 2 C 5.06 g/m*3 2 C 1.6 km/h
64 30-04-2021 05:15:00 2 C 5.06 g/m*3 2 C 3.2 km/h
65 30-04-2021 05:20:00 2 C 5.11 g/m*3 2 C 1.6 km/h
66 30-04-2021 05:25:00 2 C 5.11 g/m*3 2 C 3.2 km/h
67 30-04-2021 05:30:00 2 C 5.11 g/m*3 2 C 3.2 km/h
68 30-04-2021 05:35:00 1.9 C 5.08 g/m*3 1.9 C 1.6 km/h
69 30-04-2021 05:40:00 1.9 C 5.08 g/m*3 1.9 C 1.6 km/h
70 30-04-2021 05:45:00 1.9 C 5.08 g/m*3 1.9 C 1.6 km/h
71 30-04-2021 05:50:00 1.9 C 5.08 g/m*3 1.9 C 1.6 km/h
72 30-04-2021 05:55:00 2 C 5.11 g/m*3 0.13 C 6.4 km/h
73 30-04-2021 06:00:00 2.2 C 5.24 g/m*3 2.2 C 4.8 km/h
74 30-04-2021 06:05:00 2.3 C 5.27 g/m*3 2.3 C 3.2 km/h
75 30-04-2021 06:10:00 2.4 C 5.31 g/m*3 2.4 C 4.8 km/h
Sensor: Nr:Datum:Temp:Abs-Feuchte:Windchill:Wind:
Aussen-T/F 76 30-04-2021 06:15:00 2.6 C 5.38 g/m*3 2.6 C 0 km/h
77 30-04-2021 06:20:00 2.6 C 5.38 g/m*3 2.6 C 0 km/h
78 30-04-2021 06:25:00 2.6 C 5.38 g/m*3 2.6 C 4.8 km/h
79 30-04-2021 06:30:00 2.7 C 5.42 g/m*3 2.7 C 3.2 km/h
80 30-04-2021 06:35:00 2.7 C 5.36 g/m*3 0.94 C 6.4 km/h
81 30-04-2021 06:40:00 2.8 C 5.4 g/m*3 1.05 C 6.4 km/h
82 30-04-2021 06:45:00 2.8 C 5.4 g/m*3 0.1 C 9.7 km/h
83 30-04-2021 06:50:00 2.9 C 5.43 g/m*3 1.17 C 6.4 km/h
84 30-04-2021 06:55:00 2.9 C 5.43 g/m*3 1.17 C 6.4 km/h
85 30-04-2021 07:00:00 3 C 5.47 g/m*3 1.28 C 6.4 km/h
86 30-04-2021 07:05:00 3.1 C 5.51 g/m*3 1.4 C 6.4 km/h
87 30-04-2021 07:10:00 3.1 C 5.45 g/m*3 0.87 C 8.1 km/h
88 30-04-2021 07:15:00 3.1 C 5.45 g/m*3 0.46 C 9.7 km/h
89 30-04-2021 07:20:00 3.2 C 5.48 g/m*3 1.51 C 6.4 km/h
90 30-04-2021 07:25:00 3.2 C 5.48 g/m*3 0.99 C 8.1 km/h
91 30-04-2021 07:30:00 3.3 C 5.52 g/m*3 3.3 C 4.8 km/h
92 30-04-2021 07:35:00 3.4 C 5.56 g/m*3 1.23 C 8.1 km/h
93 30-04-2021 07:40:00 3.6 C 5.63 g/m*3 3.6 C 4.8 km/h
94 30-04-2021 07:45:00 3.7 C 5.61 g/m*3 1.18 C 9.7 km/h
95 30-04-2021 07:50:00 3.7 C 5.61 g/m*3 1.58 C 8.1 km/h
96 30-04-2021 07:55:00 3.8 C 5.65 g/m*3 1.7 C 8.1 km/h
97 30-04-2021 08:00:00 3.9 C 5.68 g/m*3 1.41 C 9.7 km/h
98 30-04-2021 08:05:00 4.1 C 5.76 g/m*3 2.05 C 8.1 km/h
99 30-04-2021 08:10:00 4.3 C 5.77 g/m*3 1.55 C 11.3 km/h
100 30-04-2021 08:15:00 4.4 C 5.81 g/m*3 2.4 C 8.1 km/h
Sensor: Nr:Datum:Temp:Abs-Feuchte:Windchill:Wind:
Aussen-T/F 101 30-04-2021 08:20:00 4.6 C 5.82 g/m*3 2.64 C 8.1 km/h
102 30-04-2021 08:25:00 4.7 C 5.86 g/m*3 2.76 C 8.1 km/h
103 30-04-2021 08:30:00 4.8 C 5.9 g/m*3 3.36 C 6.4 km/h
104 30-04-2021 08:35:00 5 C 5.98 g/m*3 5 C 4.8 km/h
105 30-04-2021 08:40:00 5.2 C 5.99 g/m*3 3.82 C 6.4 km/h
106 30-04-2021 08:45:00 5.3 C 6.03 g/m*3 5.3 C 4.8 km/h
107 30-04-2021 08:50:00 5.4 C 6 g/m*3 5.4 C 4.8 km/h
108 30-04-2021 08:55:00 5.6 C 6.01 g/m*3 4.29 C 6.4 km/h
109 30-04-2021 09:00:00 5.8 C 6.09 g/m*3 4.05 C 8.1 km/h
110 30-04-2021 09:05:00 5.8 C 6.02 g/m*3 4.05 C 8.1 km/h
111 30-04-2021 09:10:00 5.9 C 6.06 g/m*3 5.9 C 4.8 km/h
112 30-04-2021 09:15:00 6 C 6.1 g/m*3 4.75 C 6.4 km/h
113 30-04-2021 09:20:00 6.1 C 6.06 g/m*3 4.04 C 9.7 km/h
114 30-04-2021 09:25:00 6.2 C 6.1 g/m*3 3.84 C 11.3 km/h
115 30-04-2021 09:30:00 6.3 C 6.14 g/m*3 4.27 C 9.7 km/h
116 30-04-2021 09:35:00 6.4 C 6.11 g/m*3 5.21 C 6.4 km/h
117 30-04-2021 09:40:00 6.5 C 6.15 g/m*3 5.33 C 6.4 km/h
118 30-04-2021 09:45:00 6.6 C 6.11 g/m*3 5.44 C 6.4 km/h
119 30-04-2021 09:50:00 6.7 C 6.08 g/m*3 6.7 C 4.8 km/h
120 30-04-2021 09:55:00 6.8 C 6.12 g/m*3 5.67 C 6.4 km/h
121 30-04-2021 10:00:00 6.9 C 6.16 g/m*3 6.9 C 4.8 km/h
122 30-04-2021 10:05:00 7.1 C 6.24 g/m*3 6.02 C 6.4 km/h
123 30-04-2021 10:10:00 7.2 C 6.2 g/m*3 7.2 C 4.8 km/h
124 30-04-2021 10:15:00 7.2 C 6.12 g/m*3 7.2 C 4.8 km/h
125 30-04-2021 10:20:00 7.3 C 6.16 g/m*3 7.3 C 4.8 km/h
Sensor: Nr:Datum:Temp:Abs-Feuchte:Windchill:Wind:
Aussen-T/F 126 30-04-2021 10:25:00 7.4 C 6.2 g/m*3 6.37 C 6.4 km/h
127 30-04-2021 10:30:00 7.6 C 6.28 g/m*3 7.6 C 4.8 km/h
128 30-04-2021 10:35:00 7.6 C 6.28 g/m*3 6.6 C 6.4 km/h
129 30-04-2021 10:40:00 7.7 C 6.24 g/m*3 7.7 C 4.8 km/h
130 30-04-2021 10:45:00 7.8 C 6.28 g/m*3 7.8 C 4.8 km/h
131 30-04-2021 10:50:00 7.9 C 6.24 g/m*3 6.94 C 6.4 km/h
132 30-04-2021 10:55:00 7.9 C 6.32 g/m*3 7.9 C 4.8 km/h
133 30-04-2021 11:00:00 8.1 C 6.24 g/m*3 8.1 C 4.8 km/h
134 30-04-2021 11:05:00 8.1 C 6.41 g/m*3 8.1 C 3.2 km/h
135 30-04-2021 11:10:00 8.3 C 6.32 g/m*3 8.3 C 3.2 km/h
136 30-04-2021 11:15:00 8.3 C 6.32 g/m*3 8.3 C 3.2 km/h
137 30-04-2021 11:20:00 8.3 C 6.32 g/m*3 8.3 C 3.2 km/h
138 30-04-2021 11:25:00 8.3 C 6.32 g/m*3 8.3 C 4.8 km/h
139 30-04-2021 11:30:00 8.3 C 6.41 g/m*3 8.3 C 1.6 km/h
140 30-04-2021 11:35:00 8.4 C 6.36 g/m*3 8.4 C 3.2 km/h
141 30-04-2021 11:40:00 8.3 C 6.32 g/m*3 8.3 C 1.6 km/h
142 30-04-2021 11:45:00 8.4 C 6.36 g/m*3 8.4 C 4.8 km/h
143 30-04-2021 11:50:00 8.5 C 6.4 g/m*3 8.5 C 3.2 km/h
144 30-04-2021 11:55:00 8.8 C 6.53 g/m*3 7.58 C 8.1 km/h
145 30-04-2021 12:00:00 9.1 C 6.48 g/m*3 9.1 C 3.2 km/h
146 30-04-2021 12:05:00 9.2 C 6.52 g/m*3 9.2 C 0 km/h
147 30-04-2021 12:10:00 9.3 C 6.56 g/m*3 7.85 C 9.7 km/h
148 30-04-2021 12:15:00 9.6 C 6.69 g/m*3 8.52 C 8.1 km/h
149 30-04-2021 12:20:00 9.8 C 6.68 g/m*3 9.8 C 4.8 km/h
150 30-04-2021 12:25:00 9.8 C 6.59 g/m*3 9.14 C 6.4 km/h
Sensor: Nr:Datum:Temp:Abs-Feuchte:Windchill:Wind:
Aussen-T/F 151 30-04-2021 12:30:00 9.8 C 6.68 g/m*3 9.8 C 4.8 km/h
152 30-04-2021 12:35:00 10.1 C 6.62 g/m*3 10.1 C 3.2 km/h
153 30-04-2021 12:40:00 10.2 C 6.66 g/m*3 8.92 C 9.7 km/h
154 30-04-2021 12:45:00 10.2 C 6.66 g/m*3 8.22 C 14.5 km/h
155 30-04-2021 12:50:00 10.2 C 6.66 g/m*3 8.92 C 9.7 km/h
156 30-04-2021 12:55:00 10.2 C 6.66 g/m*3 9.6 C 6.4 km/h
157 30-04-2021 13:00:00 10.3 C 6.8 g/m*3 9.72 C 6.4 km/h
158 30-04-2021 13:05:00 10.6 C 6.73 g/m*3 9.4 C 9.7 km/h
159 30-04-2021 13:10:00 10.6 C 6.73 g/m*3 9.4 C 9.7 km/h
160 30-04-2021 13:15:00 10.7 C 6.58 g/m*3 9.81 C 8.1 km/h
161 30-04-2021 13:20:00 10.7 C 6.68 g/m*3 10.18 C 6.4 km/h
162 30-04-2021 13:25:00 10.8 C 6.62 g/m*3 10.29 C 6.4 km/h
163 30-04-2021 13:30:00 11 C 6.81 g/m*3 10.16 C 8.1 km/h
164 30-04-2021 13:35:00 11.2 C 6.79 g/m*3 11.2 C 9.7 km/h
165 30-04-2021 13:40:00 11.3 C 6.73 g/m*3 11.3 C 6.4 km/h
166 30-04-2021 13:45:00 11.4 C 6.77 g/m*3 11.4 C 11.3 km/h
167 30-04-2021 13:50:00 11.5 C 6.71 g/m*3 11.5 C 8.1 km/h
168 30-04-2021 13:55:00 11.6 C 6.65 g/m*3 11.6 C 3.2 km/h
169 30-04-2021 14:00:00 11.7 C 6.59 g/m*3 11.7 C 3.2 km/h
170 30-04-2021 14:05:00 12 C 6.61 g/m*3 12 C 6.4 km/h
171 30-04-2021 14:10:00 12.2 C 6.58 g/m*3 12.2 C 4.8 km/h
172 30-04-2021 14:15:00 12.2 C 6.47 g/m*3 12.2 C 12.9 km/h
173 30-04-2021 14:20:00 12.1 C 6.43 g/m*3 12.1 C 11.3 km/h
174 30-04-2021 14:25:00 12 C 6.61 g/m*3 12 C 8.1 km/h
175 30-04-2021 14:30:00 12.1 C 6.43 g/m*3 12.1 C 4.8 km/h
Sensor: Nr:Datum:Temp:Abs-Feuchte:Windchill:Wind:
Aussen-T/F 176 30-04-2021 14:35:00 12.2 C 6.37 g/m*3 12.2 C 6.4 km/h
177 30-04-2021 14:40:00 12.3 C 6.08 g/m*3 12.3 C 8.1 km/h
178 30-04-2021 14:45:00 12.4 C 5.68 g/m*3 12.4 C 8.1 km/h
179 30-04-2021 14:50:00 12.6 C 5.86 g/m*3 12.6 C 0 km/h
180 30-04-2021 14:55:00 12.9 C 5.86 g/m*3 12.9 C 6.4 km/h
181 30-04-2021 15:00:00 13.3 C 6.24 g/m*3 13.3 C 3.2 km/h
182 30-04-2021 15:05:00 13.6 C 6.12 g/m*3 13.6 C 9.7 km/h
183 30-04-2021 15:10:00 13.8 C 6.2 g/m*3 13.8 C 6.4 km/h
184 30-04-2021 15:15:00 13.8 C 5.84 g/m*3 13.8 C 6.4 km/h
185 30-04-2021 15:20:00 13.7 C 5.57 g/m*3 13.7 C 8.1 km/h
186 30-04-2021 15:25:00 13.7 C 5.8 g/m*3 13.7 C 6.4 km/h
187 30-04-2021 15:30:00 13.8 C 5.72 g/m*3 13.8 C 4.8 km/h
188 30-04-2021 15:35:00 13.8 C 5.6 g/m*3 13.8 C 6.4 km/h
189 30-04-2021 15:40:00 13.7 C 5.8 g/m*3 13.7 C 0 km/h
190 30-04-2021 15:45:00 13.9 C 6.23 g/m*3 13.9 C 4.8 km/h
191 30-04-2021 15:50:00 14.3 C 6.02 g/m*3 14.3 C 6.4 km/h
192 30-04-2021 15:55:00 14.6 C 6.01 g/m*3 14.6 C 11.3 km/h
193 30-04-2021 16:00:00 15.2 C 5.97 g/m*3 15.2 C 6.4 km/h
194 30-04-2021 16:05:00 15.4 C 6.04 g/m*3 15.4 C 8.1 km/h
195 30-04-2021 16:10:00 15.3 C 5.75 g/m*3 15.3 C 8.1 km/h
196 30-04-2021 16:15:00 15.2 C 5.97 g/m*3 15.2 C 8.1 km/h
197 30-04-2021 16:20:00 15.6 C 5.98 g/m*3 15.6 C 8.1 km/h
198 30-04-2021 16:25:00 15.6 C 5.85 g/m*3 15.6 C 8.1 km/h
199 30-04-2021 16:30:00 15.1 C 5.81 g/m*3 15.1 C 9.7 km/h
200 30-04-2021 16:35:00 14.7 C 5.79 g/m*3 14.7 C 6.4 km/h
Sensor: Nr:Datum:Temp:Abs-Feuchte:Windchill:Wind:
Aussen-T/F 201 30-04-2021 16:40:00 14.4 C 5.93 g/m*3 14.4 C 4.8 km/h
202 30-04-2021 16:45:00 14.3 C 6.51 g/m*3 14.3 C 6.4 km/h
203 30-04-2021 16:50:00 14 C 6.15 g/m*3 14 C 6.4 km/h
204 30-04-2021 16:55:00 13.7 C 5.92 g/m*3 13.7 C 6.4 km/h
205 30-04-2021 17:00:00 13.6 C 6.12 g/m*3 13.6 C 8.1 km/h
206 30-04-2021 17:05:00 13.4 C 6.04 g/m*3 13.4 C 8.1 km/h
207 30-04-2021 17:10:00 13.4 C 6.16 g/m*3 13.4 C 8.1 km/h
208 30-04-2021 17:15:00 13.4 C 6.28 g/m*3 13.4 C 3.2 km/h
209 30-04-2021 17:20:00 13.4 C 6.28 g/m*3 13.4 C 1.6 km/h
210 30-04-2021 17:25:00 13.3 C 6.24 g/m*3 13.3 C 1.6 km/h
211 30-04-2021 17:30:00 13.3 C 6.12 g/m*3 13.3 C 4.8 km/h
212 30-04-2021 17:35:00 13.2 C 5.97 g/m*3 13.2 C 3.2 km/h
213 30-04-2021 17:40:00 13.2 C 6.2 g/m*3 13.2 C 0 km/h
214 30-04-2021 17:45:00 13.2 C 6.2 g/m*3 13.2 C 1.6 km/h
215 30-04-2021 17:50:00 13.2 C 6.2 g/m*3 13.2 C 1.6 km/h
216 30-04-2021 17:55:00 13.2 C 6.32 g/m*3 13.2 C 0 km/h
217 30-04-2021 18:00:00 13.2 C 6.2 g/m*3 13.2 C 0 km/h
218 30-04-2021 18:05:00 13.2 C 6.2 g/m*3 13.2 C 3.2 km/h
219 30-04-2021 18:10:00 13.2 C 5.97 g/m*3 13.2 C 8.1 km/h
220 30-04-2021 18:15:00 13.2 C 6.32 g/m*3 13.2 C 8.1 km/h
221 30-04-2021 18:20:00 13.2 C 6.09 g/m*3 13.2 C 4.8 km/h
222 30-04-2021 18:25:00 13.3 C 6.24 g/m*3 13.3 C 3.2 km/h
223 30-04-2021 18:30:00 13.3 C 6.24 g/m*3 13.3 C 8.1 km/h
224 30-04-2021 18:35:00 13.3 C 6.12 g/m*3 13.3 C 8.1 km/h
225 30-04-2021 18:40:00 13.3 C 6.35 g/m*3 13.3 C 1.6 km/h
Sensor: Nr:Datum:Temp:Abs-Feuchte:Windchill:Wind:
Aussen-T/F 226 30-04-2021 18:45:00 13.3 C 6.12 g/m*3 13.3 C 1.6 km/h
227 30-04-2021 18:50:00 13.3 C 6.24 g/m*3 13.3 C 0 km/h
228 30-04-2021 18:55:00 13.2 C 6.32 g/m*3 13.2 C 0 km/h
229 30-04-2021 19:00:00 13.2 C 6.32 g/m*3 13.2 C 1.6 km/h
230 30-04-2021 19:05:00 13.2 C 6.2 g/m*3 13.2 C 3.2 km/h
231 30-04-2021 19:10:00 13.1 C 6.05 g/m*3 13.1 C 4.8 km/h
232 30-04-2021 19:15:00 13.1 C 6.28 g/m*3 13.1 C 1.6 km/h
233 30-04-2021 19:20:00 13.1 C 6.16 g/m*3 13.1 C 0 km/h
234 30-04-2021 19:25:00 13 C 6.58 g/m*3 13 C 0 km/h
235 30-04-2021 19:30:00 12.9 C 6.31 g/m*3 12.9 C 0 km/h
236 30-04-2021 19:35:00 12.9 C 6.31 g/m*3 12.9 C 0 km/h
237 30-04-2021 19:40:00 12.8 C 6.61 g/m*3 12.8 C 0 km/h
238 30-04-2021 19:45:00 12.7 C 6.79 g/m*3 12.7 C 0 km/h
239 30-04-2021 19:50:00 12.6 C 6.75 g/m*3 12.6 C 0 km/h
240 30-04-2021 19:55:00 12.5 C 6.71 g/m*3 12.5 C 0 km/h
241 30-04-2021 20:00:00 12.4 C 6.88 g/m*3 12.4 C 0 km/h
242 30-04-2021 20:05:00 12.3 C 6.95 g/m*3 12.3 C 1.6 km/h
243 30-04-2021 20:10:00 12.1 C 6.86 g/m*3 12.1 C 1.6 km/h
244 30-04-2021 20:15:00 11.9 C 6.78 g/m*3 11.9 C 1.6 km/h
245 30-04-2021 20:20:00 11.8 C 6.84 g/m*3 11.8 C 0 km/h
246 30-04-2021 20:25:00 11.6 C 6.76 g/m*3 11.6 C 3.2 km/h
247 30-04-2021 20:30:00 11.3 C 6.73 g/m*3 11.3 C 1.6 km/h
248 30-04-2021 20:35:00 11.2 C 6.79 g/m*3 11.2 C 0 km/h
249 30-04-2021 20:40:00 11 C 6.71 g/m*3 11 C 1.6 km/h
250 30-04-2021 20:45:00 10.8 C 6.62 g/m*3 10.8 C 3.2 km/h
Sensor: Nr:Datum:Temp:Abs-Feuchte:Windchill:Wind:
Aussen-T/F 251 30-04-2021 20:50:00 10.7 C 6.68 g/m*3 10.7 C 1.6 km/h
252 30-04-2021 20:55:00 10.5 C 6.69 g/m*3 10.5 C 0 km/h
253 30-04-2021 21:00:00 10.4 C 6.65 g/m*3 10.4 C 0 km/h
254 30-04-2021 21:05:00 10.3 C 6.61 g/m*3 10.3 C 0 km/h
255 30-04-2021 21:10:00 10.1 C 6.62 g/m*3 10.1 C 0 km/h
256 30-04-2021 21:15:00 9.9 C 6.54 g/m*3 9.9 C 0 km/h
257 30-04-2021 21:20:00 9.8 C 6.59 g/m*3 9.8 C 0 km/h
258 30-04-2021 21:25:00 9.7 C 6.64 g/m*3 9.7 C 0 km/h
259 30-04-2021 21:30:00 9.6 C 6.6 g/m*3 9.6 C 0 km/h
260 30-04-2021 21:35:00 9.6 C 6.6 g/m*3 9.6 C 4.8 km/h
261 30-04-2021 21:40:00 9.6 C 6.6 g/m*3 9.6 C 4.8 km/h
262 30-04-2021 21:45:00 9.6 C 6.5 g/m*3 8.52 C 8.1 km/h
263 30-04-2021 21:50:00 9.7 C 6.45 g/m*3 9.7 C 3.2 km/h
264 30-04-2021 21:55:00 9.7 C 6.45 g/m*3 9.7 C 0 km/h
265 30-04-2021 22:00:00 9.8 C 6.68 g/m*3 9.8 C 0 km/h
266 30-04-2021 22:05:00 9.8 C 6.68 g/m*3 9.8 C 0 km/h
267 30-04-2021 22:10:00 9.8 C 6.77 g/m*3 9.8 C 0 km/h
268 30-04-2021 22:15:00 9.7 C 6.64 g/m*3 9.7 C 0 km/h
269 30-04-2021 22:20:00 9.7 C 6.73 g/m*3 9.7 C 1.6 km/h
270 30-04-2021 22:25:00 9.7 C 6.64 g/m*3 9.7 C 3.2 km/h
271 30-04-2021 22:30:00 9.6 C 6.69 g/m*3 9.6 C 1.6 km/h
272 30-04-2021 22:35:00 9.6 C 6.69 g/m*3 9.6 C 1.6 km/h
273 30-04-2021 22:40:00 9.5 C 6.64 g/m*3 9.5 C 1.6 km/h
274 30-04-2021 22:45:00 9.4 C 6.6 g/m*3 9.4 C 0 km/h
275 30-04-2021 22:50:00 9.4 C 6.69 g/m*3 9.4 C 0 km/h
Sensor: Nr:Datum:Temp:Abs-Feuchte:Windchill:Wind:
Aussen-T/F 276 30-04-2021 22:55:00 9.3 C 6.65 g/m*3 9.3 C 0 km/h
277 30-04-2021 23:00:00 9.3 C 6.65 g/m*3 9.3 C 0 km/h
278 30-04-2021 23:05:00 9.2 C 6.61 g/m*3 9.2 C 0 km/h
279 30-04-2021 23:10:00 9.2 C 6.61 g/m*3 9.2 C 4.8 km/h
280 30-04-2021 23:15:00 9.2 C 6.61 g/m*3 9.2 C 4.8 km/h
281 30-04-2021 23:20:00 9.1 C 6.57 g/m*3 9.1 C 4.8 km/h
282 30-04-2021 23:25:00 9.1 C 6.57 g/m*3 9.1 C 4.8 km/h
283 30-04-2021 23:30:00 9.1 C 6.57 g/m*3 9.1 C 1.6 km/h
284 30-04-2021 23:35:00 9.1 C 6.57 g/m*3 9.1 C 1.6 km/h
285 30-04-2021 23:40:00 9.2 C 6.61 g/m*3 9.2 C 1.6 km/h
286 30-04-2021 23:45:00 9.2 C 6.61 g/m*3 9.2 C 0 km/h
287 30-04-2021 23:50:00 9.1 C 6.57 g/m*3 9.1 C 0 km/h
288 30-04-2021 23:55:00 9.1 C 6.57 g/m*3 9.1 C 0 km/h
289 01-05-2021 00:00:00 9.1 C 6.48 g/m*3 9.1 C 0 km/h
290 01-05-2021 00:05:00 9.1 C 6.57 g/m*3 9.1 C 3.2 km/h
291 01-05-2021 00:10:00 9.1 C 6.57 g/m*3 9.1 C 3.2 km/h
292 01-05-2021 00:15:00 9.1 C 6.57 g/m*3 9.1 C 3.2 km/h
293 01-05-2021 00:20:00 9.1 C 6.57 g/m*3 9.1 C 0 km/h
294 01-05-2021 00:25:00 9.1 C 6.65 g/m*3 9.1 C 0 km/h
295 01-05-2021 00:30:00 9 C 6.61 g/m*3 9 C 1.6 km/h
296 01-05-2021 00:35:00 9 C 6.61 g/m*3 9 C 3.2 km/h
297 01-05-2021 00:40:00 8.9 C 6.48 g/m*3 8.9 C 4.8 km/h
298 01-05-2021 00:45:00 8.9 C 6.48 g/m*3 8.9 C 4.8 km/h
299 01-05-2021 00:50:00 8.9 C 6.57 g/m*3 8.9 C 3.2 km/h
300 01-05-2021 00:55:00 8.8 C 6.61 g/m*3 8.8 C 3.2 km/h
Sensor: Nr:Datum:Temp:Abs-Feuchte:Windchill:Wind:
Aussen-T/F 301 01-05-2021 01:00:00 8.8 C 6.61 g/m*3 8.8 C 0 km/h
302 01-05-2021 01:05:00 8.8 C 6.61 g/m*3 8.8 C 0 km/h
303 01-05-2021 01:10:00 8.7 C 6.57 g/m*3 8.7 C 0 km/h
304 01-05-2021 01:15:00 8.6 C 6.53 g/m*3 8.6 C 0 km/h
305 01-05-2021 01:20:00 8.6 C 6.62 g/m*3 8.6 C 0 km/h
306 01-05-2021 01:25:00 8.4 C 6.53 g/m*3 8.4 C 3.2 km/h
307 01-05-2021 01:30:00 8.4 C 6.53 g/m*3 8.4 C 0 km/h
308 01-05-2021 01:35:00 8.3 C 6.49 g/m*3 8.3 C 0 km/h
309 01-05-2021 01:40:00 8.3 C 6.49 g/m*3 8.3 C 0 km/h
310 01-05-2021 01:45:00 8.3 C 6.57 g/m*3 8.3 C 0 km/h
311 01-05-2021 01:50:00 8.3 C 6.57 g/m*3 8.3 C 0 km/h
312 01-05-2021 01:55:00 8.2 C 6.53 g/m*3 8.2 C 0 km/h
313 01-05-2021 02:00:00 8.2 C 6.45 g/m*3 8.2 C 0 km/h
314 01-05-2021 02:05:00 8.1 C 6.41 g/m*3 8.1 C 0 km/h
315 01-05-2021 02:10:00 8.1 C 6.41 g/m*3 8.1 C 0 km/h
316 01-05-2021 02:15:00 8.1 C 6.49 g/m*3 8.1 C 0 km/h
317 01-05-2021 02:20:00 8.1 C 6.41 g/m*3 8.1 C 3.2 km/h
318 01-05-2021 02:25:00 8.2 C 6.45 g/m*3 8.2 C 3.2 km/h
319 01-05-2021 02:30:00 8.2 C 6.53 g/m*3 8.2 C 0 km/h
320 01-05-2021 02:35:00 8.3 C 6.49 g/m*3 7.41 C 6.4 km/h
321 01-05-2021 02:40:00 8.4 C 6.62 g/m*3 8.4 C 4.8 km/h
322 01-05-2021 02:45:00 8.6 C 6.7 g/m*3 7.01 C 9.7 km/h
323 01-05-2021 02:50:00 8.8 C 6.79 g/m*3 8.8 C 3.2 km/h
324 01-05-2021 02:55:00 8.9 C 6.83 g/m*3 8.9 C 3.2 km/h
325 01-05-2021 03:00:00 9 C 6.88 g/m*3 7.21 C 11.3 km/h
Sensor: Nr:Datum:Temp:Abs-Feuchte:Windchill:Wind:
Aussen-T/F 326 01-05-2021 03:05:00 9.1 C 6.92 g/m*3 9.1 C 1.6 km/h
327 01-05-2021 03:10:00 9.1 C 6.92 g/m*3 9.1 C 4.8 km/h
328 01-05-2021 03:15:00 9.1 C 7.01 g/m*3 8.33 C 6.4 km/h
329 01-05-2021 03:20:00 8.9 C 6.92 g/m*3 8.9 C 0 km/h
330 01-05-2021 03:25:00 8.8 C 6.88 g/m*3 8.8 C 0 km/h
331 01-05-2021 03:30:00 8.7 C 6.83 g/m*3 8.7 C 0 km/h
332 01-05-2021 03:35:00 8.4 C 6.7 g/m*3 8.4 C 1.6 km/h
333 01-05-2021 03:40:00 8.2 C 6.7 g/m*3 8.2 C 1.6 km/h
334 01-05-2021 03:45:00 7.9 C 6.65 g/m*3 7.9 C 0 km/h
335 01-05-2021 03:50:00 7.7 C 6.65 g/m*3 7.7 C 0 km/h
336 01-05-2021 03:55:00 7.5 C 6.56 g/m*3 7.5 C 0 km/h
337 01-05-2021 04:00:00 7.3 C 6.56 g/m*3 7.3 C 0 km/h
338 01-05-2021 04:05:00 7.1 C 6.47 g/m*3 7.1 C 3.2 km/h
339 01-05-2021 04:10:00 6.9 C 6.47 g/m*3 6.9 C 4.8 km/h
340 01-05-2021 04:15:00 6.8 C 6.5 g/m*3 6.8 C 4.8 km/h
341 01-05-2021 04:20:00 6.7 C 6.53 g/m*3 6.7 C 1.6 km/h
342 01-05-2021 04:25:00 6.7 C 6.53 g/m*3 6.7 C 4.8 km/h
343 01-05-2021 04:30:00 6.6 C 6.57 g/m*3 5.44 C 6.4 km/h
344 01-05-2021 04:35:00 6.6 C 6.57 g/m*3 6.6 C 4.8 km/h
345 01-05-2021 04:40:00 6.5 C 6.52 g/m*3 5.33 C 6.4 km/h
346 01-05-2021 04:45:00 6.4 C 6.48 g/m*3 6.4 C 4.8 km/h
347 01-05-2021 04:50:00 6.4 C 6.56 g/m*3 5.21 C 6.4 km/h
348 01-05-2021 04:55:00 6.3 C 6.51 g/m*3 6.3 C 4.8 km/h
349 01-05-2021 05:00:00 6.3 C 6.51 g/m*3 6.3 C 3.2 km/h
350 01-05-2021 05:05:00 6.3 C 6.51 g/m*3 6.3 C 1.6 km/h
Sensor: Nr:Datum:Temp:Abs-Feuchte:Windchill:Wind:
Aussen-T/F 351 01-05-2021 05:10:00 6.2 C 6.47 g/m*3 4.98 C 6.4 km/h
352 01-05-2021 05:15:00 6.2 C 6.55 g/m*3 6.2 C 4.8 km/h
353 01-05-2021 05:20:00 6.1 C 6.5 g/m*3 6.1 C 1.6 km/h
354 01-05-2021 05:25:00 6.1 C 6.5 g/m*3 6.1 C 1.6 km/h
355 01-05-2021 05:30:00 6.1 C 6.5 g/m*3 6.1 C 3.2 km/h
356 01-05-2021 05:35:00 6.1 C 6.58 g/m*3 6.1 C 1.6 km/h
357 01-05-2021 05:40:00 6.1 C 6.58 g/m*3 6.1 C 3.2 km/h
358 01-05-2021 05:45:00 6 C 6.53 g/m*3 6 C 0 km/h
359 01-05-2021 05:50:00 6.1 C 6.58 g/m*3 6.1 C 0 km/h
360 01-05-2021 05:55:00 6.1 C 6.65 g/m*3 6.1 C 1.6 km/h
361 01-05-2021 06:00:00 6.2 C 6.69 g/m*3 6.2 C 0 km/h
362 01-05-2021 06:05:00 6.2 C 6.69 g/m*3 6.2 C 1.6 km/h
363 01-05-2021 06:10:00 6.2 C 6.69 g/m*3 6.2 C 0 km/h
364 01-05-2021 06:15:00 6.2 C 6.69 g/m*3 6.2 C 0 km/h
365 01-05-2021 06:20:00 6.1 C 6.65 g/m*3 6.1 C 3.2 km/h
366 01-05-2021 06:25:00 6.1 C 6.65 g/m*3 6.1 C 1.6 km/h
367 01-05-2021 06:30:00 6.1 C 6.65 g/m*3 6.1 C 0 km/h
368 01-05-2021 06:35:00 6.2 C 6.69 g/m*3 6.2 C 0 km/h
369 01-05-2021 06:40:00 6.2 C 6.69 g/m*3 6.2 C 0 km/h
370 01-05-2021 06:45:00 6.3 C 6.74 g/m*3 6.3 C 0 km/h
371 01-05-2021 06:50:00 6.4 C 6.78 g/m*3 6.4 C 0 km/h
372 01-05-2021 06:55:00 6.6 C 6.95 g/m*3 4.99 C 8.1 km/h
373 01-05-2021 07:00:00 6.7 C 6.91 g/m*3 5.56 C 6.4 km/h
374 01-05-2021 07:05:00 6.8 C 6.96 g/m*3 4.87 C 9.7 km/h
375 01-05-2021 07:10:00 6.9 C 6.93 g/m*3 4.99 C 9.7 km/h
Sensor: Nr:Datum:Temp:Abs-Feuchte:Windchill:Wind:
Aussen-T/F 376 01-05-2021 07:15:00 7 C 6.97 g/m*3 7 C 0 km/h
377 01-05-2021 07:20:00 7.1 C 7.02 g/m*3 7.1 C 1.6 km/h
378 01-05-2021 07:25:00 7.2 C 6.99 g/m*3 5.69 C 8.1 km/h
379 01-05-2021 07:30:00 7.2 C 6.99 g/m*3 7.2 C 3.2 km/h
380 01-05-2021 07:35:00 7.3 C 6.95 g/m*3 7.3 C 1.6 km/h
381 01-05-2021 07:40:00 7.3 C 7.03 g/m*3 7.3 C 0 km/h
382 01-05-2021 07:45:00 7.4 C 7.08 g/m*3 7.4 C 3.2 km/h
383 01-05-2021 07:50:00 7.6 C 7.09 g/m*3 7.6 C 1.6 km/h
384 01-05-2021 07:55:00 7.7 C 7.14 g/m*3 7.7 C 0 km/h
385 01-05-2021 08:00:00 7.8 C 7.1 g/m*3 6.4 C 8.1 km/h
386 01-05-2021 08:05:00 7.8 C 7.1 g/m*3 7.8 C 1.6 km/h
387 01-05-2021 08:10:00 7.9 C 7.06 g/m*3 7.9 C 4.8 km/h
388 01-05-2021 08:15:00 7.9 C 7.06 g/m*3 7.9 C 3.2 km/h
389 01-05-2021 08:20:00 7.9 C 6.98 g/m*3 6.94 C 6.4 km/h
390 01-05-2021 08:25:00 7.9 C 6.98 g/m*3 6.52 C 8.1 km/h
391 01-05-2021 08:30:00 8 C 7.03 g/m*3 7.06 C 6.4 km/h
392 01-05-2021 08:35:00 8 C 6.94 g/m*3 6.64 C 8.1 km/h
393 01-05-2021 08:40:00 8 C 6.94 g/m*3 8 C 4.8 km/h
394 01-05-2021 08:45:00 8.1 C 6.99 g/m*3 7.17 C 6.4 km/h
395 01-05-2021 08:50:00 8.1 C 6.91 g/m*3 5.64 C 14.5 km/h
396 01-05-2021 08:55:00 8.1 C 6.91 g/m*3 5.64 C 14.5 km/h
397 01-05-2021 09:00:00 8.1 C 6.82 g/m*3 6.13 C 11.3 km/h
398 01-05-2021 09:05:00 8.1 C 6.82 g/m*3 6.42 C 9.7 km/h
399 01-05-2021 09:10:00 8.1 C 6.74 g/m*3 6.13 C 11.3 km/h
400 01-05-2021 09:15:00 8.2 C 6.78 g/m*3 8.2 C 4.8 km/h
Sensor: Nr:Datum:Temp:Abs-Feuchte:Windchill:Wind:
Aussen-T/F 401 01-05-2021 09:20:00 8.2 C 6.78 g/m*3 7.29 C 6.4 km/h
402 01-05-2021 09:25:00 8.3 C 6.74 g/m*3 6.99 C 8.1 km/h
403 01-05-2021 09:30:00 8.3 C 6.74 g/m*3 6.99 C 8.1 km/h
404 01-05-2021 09:35:00 8.4 C 6.79 g/m*3 7.52 C 6.4 km/h
405 01-05-2021 09:40:00 8.4 C 6.79 g/m*3 7.11 C 8.1 km/h
406 01-05-2021 09:45:00 8.6 C 6.87 g/m*3 8.6 C 3.2 km/h
407 01-05-2021 09:50:00 8.7 C 6.92 g/m*3 7.87 C 6.4 km/h
408 01-05-2021 09:55:00 8.8 C 6.96 g/m*3 8.8 C 4.8 km/h
409 01-05-2021 10:00:00 8.9 C 7.01 g/m*3 8.9 C 4.8 km/h
410 01-05-2021 10:05:00 9.1 C 7.01 g/m*3 9.1 C 4.8 km/h
411 01-05-2021 10:10:00 9.2 C 6.97 g/m*3 9.2 C 3.2 km/h
412 01-05-2021 10:15:00 9.3 C 6.92 g/m*3 8.16 C 8.1 km/h
413 01-05-2021 10:20:00 9.3 C 6.92 g/m*3 8.56 C 6.4 km/h
414 01-05-2021 10:25:00 9.3 C 7.01 g/m*3 8.56 C 6.4 km/h
415 01-05-2021 10:30:00 9.3 C 6.92 g/m*3 7.85 C 9.7 km/h
416 01-05-2021 10:35:00 9.3 C 6.92 g/m*3 7.85 C 9.7 km/h
417 01-05-2021 10:40:00 9.3 C 6.92 g/m*3 8.56 C 6.4 km/h
418 01-05-2021 10:45:00 9.4 C 6.96 g/m*3 8.68 C 6.4 km/h
419 01-05-2021 10:50:00 9.5 C 6.92 g/m*3 8.79 C 6.4 km/h
420 01-05-2021 10:55:00 9.6 C 6.96 g/m*3 9.6 C 4.8 km/h
421 01-05-2021 11:00:00 9.6 C 6.96 g/m*3 9.6 C 3.2 km/h
422 01-05-2021 11:05:00 9.7 C 6.91 g/m*3 9.7 C 4.8 km/h
423 01-05-2021 11:10:00 9.8 C 6.77 g/m*3 8.18 C 11.3 km/h
424 01-05-2021 11:15:00 9.9 C 6.91 g/m*3 9.9 C 4.8 km/h
425 01-05-2021 11:20:00 10 C 6.77 g/m*3 10 C 1.6 km/h
Sensor: Nr:Datum:Temp:Abs-Feuchte:Windchill:Wind:
Aussen-T/F 426 01-05-2021 11:25:00 10.1 C 6.9 g/m*3 10.1 C 4.8 km/h
427 01-05-2021 11:30:00 10.2 C 6.85 g/m*3 10.2 C 3.2 km/h
428 01-05-2021 11:35:00 10.2 C 6.76 g/m*3 10.2 C 4.8 km/h
429 01-05-2021 11:40:00 10.3 C 6.8 g/m*3 10.3 C 4.8 km/h
430 01-05-2021 11:45:00 10.4 C 6.84 g/m*3 9.83 C 6.4 km/h
431 01-05-2021 11:50:00 10.4 C 6.75 g/m*3 9.16 C 9.7 km/h
432 01-05-2021 11:55:00 10.3 C 6.7 g/m*3 9.34 C 8.1 km/h
433 01-05-2021 12:00:00 10.4 C 6.75 g/m*3 10.4 C 3.2 km/h
434 01-05-2021 12:05:00 10.6 C 6.83 g/m*3 10.06 C 6.4 km/h
435 01-05-2021 12:10:00 10.7 C 6.88 g/m*3 9.52 C 9.7 km/h
436 01-05-2021 12:15:00 10.9 C 6.76 g/m*3 10.41 C 6.4 km/h
437 01-05-2021 12:20:00 10.9 C 6.76 g/m*3 10.41 C 6.4 km/h
438 01-05-2021 12:25:00 10.9 C 6.66 g/m*3 9.51 C 11.3 km/h
439 01-05-2021 12:30:00 10.9 C 6.66 g/m*3 10.04 C 8.1 km/h
440 01-05-2021 12:35:00 11 C 6.91 g/m*3 9.88 C 9.7 km/h
441 01-05-2021 12:40:00 11.2 C 6.89 g/m*3 11.2 C 4.8 km/h
442 01-05-2021 12:45:00 11.3 C 6.83 g/m*3 11.3 C 6.4 km/h
443 01-05-2021 12:50:00 11.5 C 6.82 g/m*3 11.5 C 9.7 km/h
444 01-05-2021 12:55:00 11.5 C 6.61 g/m*3 11.5 C 9.7 km/h
445 01-05-2021 13:00:00 11.5 C 6.51 g/m*3 11.5 C 9.7 km/h
446 01-05-2021 13:05:00 11.5 C 6.51 g/m*3 11.5 C 9.7 km/h
447 01-05-2021 13:10:00 11.7 C 6.59 g/m*3 11.7 C 8.1 km/h
448 01-05-2021 13:15:00 11.7 C 6.48 g/m*3 11.7 C 9.7 km/h
449 01-05-2021 13:20:00 11.8 C 6.53 g/m*3 11.8 C 6.4 km/h
450 01-05-2021 13:25:00 11.9 C 6.67 g/m*3 11.9 C 6.4 km/h
Sensor: Nr:Datum:Temp:Abs-Feuchte:Windchill:Wind:
Aussen-T/F 451 01-05-2021 13:30:00 12 C 6.5 g/m*3 12 C 8.1 km/h
452 01-05-2021 13:35:00 11.9 C 6.46 g/m*3 11.9 C 9.7 km/h
453 01-05-2021 13:40:00 11.9 C 6.57 g/m*3 11.9 C 6.4 km/h
454 01-05-2021 13:45:00 12.1 C 6.43 g/m*3 12.1 C 8.1 km/h
455 01-05-2021 13:50:00 12.2 C 6.47 g/m*3 12.2 C 12.9 km/h
456 01-05-2021 13:55:00 12.1 C 6.33 g/m*3 12.1 C 9.7 km/h
457 01-05-2021 14:00:00 12.1 C 6.33 g/m*3 12.1 C 9.7 km/h
458 01-05-2021 14:05:00 12.1 C 6.43 g/m*3 12.1 C 8.1 km/h
459 01-05-2021 14:10:00 12.1 C 6.54 g/m*3 12.1 C 4.8 km/h
460 01-05-2021 14:15:00 12.2 C 6.47 g/m*3 12.2 C 4.8 km/h
461 01-05-2021 14:20:00 12.1 C 6.33 g/m*3 12.1 C 9.7 km/h
462 01-05-2021 14:25:00 12.1 C 6.01 g/m*3 12.1 C 8.1 km/h
463 01-05-2021 14:30:00 12.2 C 6.15 g/m*3 12.2 C 4.8 km/h
464 01-05-2021 14:35:00 12.3 C 6.19 g/m*3 12.3 C 6.4 km/h
465 01-05-2021 14:40:00 12.6 C 6.08 g/m*3 12.6 C 9.7 km/h
466 01-05-2021 14:45:00 12.7 C 6.12 g/m*3 12.7 C 9.7 km/h
467 01-05-2021 14:50:00 12.8 C 6.05 g/m*3 12.8 C 6.4 km/h
468 01-05-2021 14:55:00 12.9 C 5.64 g/m*3 12.9 C 8.1 km/h
469 01-05-2021 15:00:00 13.1 C 5.93 g/m*3 13.1 C 8.1 km/h
470 01-05-2021 15:05:00 13.2 C 5.97 g/m*3 13.2 C 3.2 km/h
471 01-05-2021 15:10:00 13.3 C 5.89 g/m*3 13.3 C 4.8 km/h
472 01-05-2021 15:15:00 13.4 C 5.35 g/m*3 13.4 C 11.3 km/h
473 01-05-2021 15:20:00 13.6 C 5.53 g/m*3 13.6 C 12.9 km/h
474 01-05-2021 15:25:00 13.6 C 5.41 g/m*3 13.6 C 12.9 km/h
475 01-05-2021 15:30:00 13.7 C 5.57 g/m*3 13.7 C 6.4 km/h
Sensor: Nr:Datum:Temp:Abs-Feuchte:Windchill:Wind:
Aussen-T/F 476 01-05-2021 15:35:00 13.9 C 5.39 g/m*3 13.9 C 4.8 km/h
477 01-05-2021 15:40:00 13.9 C 5.39 g/m*3 13.9 C 4.8 km/h
478 01-05-2021 15:45:00 14 C 5.55 g/m*3 14 C 6.4 km/h
479 01-05-2021 15:50:00 14.2 C 5.98 g/m*3 14.2 C 8.1 km/h
480 01-05-2021 15:55:00 14.4 C 5.56 g/m*3 14.4 C 9.7 km/h
481 01-05-2021 16:00:00 14.3 C 5.65 g/m*3 14.3 C 8.1 km/h
482 01-05-2021 16:05:00 14.2 C 5.37 g/m*3 14.2 C 6.4 km/h
483 01-05-2021 16:10:00 14.1 C 5.46 g/m*3 14.1 C 4.8 km/h
484 01-05-2021 16:15:00 14.2 C 5.62 g/m*3 14.2 C 4.8 km/h
485 01-05-2021 16:20:00 14.4 C 5.56 g/m*3 14.4 C 6.4 km/h
486 01-05-2021 16:25:00 14.5 C 5.6 g/m*3 14.5 C 6.4 km/h
487 01-05-2021 16:30:00 14.6 C 5.51 g/m*3 14.6 C 4.8 km/h
488 01-05-2021 16:35:00 14.3 C 5.41 g/m*3 14.3 C 9.7 km/h
489 01-05-2021 16:40:00 14.3 C 5.53 g/m*3 14.3 C 9.7 km/h
490 01-05-2021 16:45:00 14.4 C 5.56 g/m*3 14.4 C 9.7 km/h
491 01-05-2021 16:50:00 14.6 C 5.63 g/m*3 14.6 C 6.4 km/h
492 01-05-2021 16:55:00 14.7 C 5.41 g/m*3 14.7 C 4.8 km/h
493 01-05-2021 17:00:00 14.6 C 5.38 g/m*3 14.6 C 8.1 km/h
494 01-05-2021 17:05:00 14.5 C 5.35 g/m*3 14.5 C 11.3 km/h
495 01-05-2021 17:10:00 14.4 C 5.07 g/m*3 14.4 C 9.7 km/h
496 01-05-2021 17:15:00 14.2 C 5.13 g/m*3 14.2 C 9.7 km/h
497 01-05-2021 17:20:00 14.1 C 5.34 g/m*3 14.1 C 14.5 km/h
498 01-05-2021 17:25:00 14.1 C 5.22 g/m*3 14.1 C 12.9 km/h
499 01-05-2021 17:30:00 13.9 C 5.15 g/m*3 13.9 C 8.1 km/h
500 01-05-2021 17:35:00 13.8 C 5.12 g/m*3 13.8 C 11.3 km/h
Sensor: Nr:Datum:Temp:Abs-Feuchte:Windchill:Wind:
Aussen-T/F 501 01-05-2021 17:40:00 13.8 C 5 g/m*3 13.8 C 12.9 km/h
502 01-05-2021 17:45:00 13.8 C 5.24 g/m*3 13.8 C 6.4 km/h
503 01-05-2021 17:50:00 13.8 C 5.12 g/m*3 13.8 C 11.3 km/h
504 01-05-2021 17:55:00 13.8 C 5 g/m*3 13.8 C 12.9 km/h
505 01-05-2021 18:00:00 13.8 C 5.24 g/m*3 13.8 C 8.1 km/h
506 01-05-2021 18:05:00 13.9 C 5.27 g/m*3 13.9 C 8.1 km/h
507 01-05-2021 18:10:00 13.9 C 5.27 g/m*3 13.9 C 8.1 km/h
508 01-05-2021 18:15:00 13.8 C 5.12 g/m*3 13.8 C 14.5 km/h
509 01-05-2021 18:20:00 13.6 C 5.06 g/m*3 13.6 C 9.7 km/h
510 01-05-2021 18:25:00 13.5 C 5.15 g/m*3 13.5 C 8.1 km/h
511 01-05-2021 18:30:00 13.4 C 5 g/m*3 13.4 C 14.5 km/h
512 01-05-2021 18:35:00 13.3 C 4.97 g/m*3 13.3 C 11.3 km/h
513 01-05-2021 18:40:00 13.3 C 5.08 g/m*3 13.3 C 8.1 km/h
514 01-05-2021 18:45:00 13.3 C 5.08 g/m*3 13.3 C 14.5 km/h
515 01-05-2021 18:50:00 13.3 C 5.08 g/m*3 13.3 C 11.3 km/h
516 01-05-2021 18:55:00 13.2 C 5.05 g/m*3 13.2 C 11.3 km/h
517 01-05-2021 19:00:00 13.1 C 5.02 g/m*3 13.1 C 11.3 km/h
518 01-05-2021 19:05:00 13.1 C 5.02 g/m*3 13.1 C 12.9 km/h
519 01-05-2021 19:10:00 13 C 5.1 g/m*3 13 C 9.7 km/h
520 01-05-2021 19:15:00 12.9 C 5.07 g/m*3 12.9 C 8.1 km/h
521 01-05-2021 19:20:00 12.8 C 5.04 g/m*3 12.8 C 4.8 km/h
522 01-05-2021 19:25:00 12.8 C 5.15 g/m*3 12.8 C 8.1 km/h
523 01-05-2021 19:30:00 12.7 C 5.12 g/m*3 12.7 C 8.1 km/h
524 01-05-2021 19:35:00 12.6 C 5.09 g/m*3 12.6 C 9.7 km/h
525 01-05-2021 19:40:00 12.6 C 5.09 g/m*3 12.6 C 8.1 km/h
Sensor: Nr:Datum:Temp:Abs-Feuchte:Windchill:Wind:
Aussen-T/F 526 01-05-2021 19:45:00 12.5 C 5.17 g/m*3 12.5 C 3.2 km/h
527 01-05-2021 19:50:00 12.4 C 5.03 g/m*3 12.4 C 8.1 km/h
528 01-05-2021 19:55:00 12.4 C 5.14 g/m*3 12.4 C 6.4 km/h
529 01-05-2021 20:00:00 12.3 C 5.21 g/m*3 12.3 C 3.2 km/h
530 01-05-2021 20:05:00 12.3 C 5.1 g/m*3 12.3 C 4.8 km/h
531 01-05-2021 20:10:00 12.2 C 4.86 g/m*3 12.2 C 8.1 km/h
532 01-05-2021 20:15:00 12.2 C 4.96 g/m*3 12.2 C 9.7 km/h
533 01-05-2021 20:20:00 12.1 C 4.93 g/m*3 12.1 C 8.1 km/h
534 01-05-2021 20:25:00 12.1 C 4.93 g/m*3 12.1 C 6.4 km/h
535 01-05-2021 20:30:00 12.1 C 4.93 g/m*3 12.1 C 6.4 km/h
536 01-05-2021 20:35:00 12 C 5.01 g/m*3 12 C 3.2 km/h
537 01-05-2021 20:40:00 11.9 C 4.98 g/m*3 11.9 C 3.2 km/h
538 01-05-2021 20:45:00 11.8 C 5.16 g/m*3 11.8 C 3.2 km/h
539 01-05-2021 20:50:00 11.7 C 5.44 g/m*3 11.7 C 0 km/h
540 01-05-2021 20:55:00 11.6 C 5.4 g/m*3 11.6 C 1.6 km/h
541 01-05-2021 21:00:00 11.3 C 5.41 g/m*3 11.3 C 0 km/h
542 01-05-2021 21:05:00 11.2 C 5.27 g/m*3 11.2 C 4.8 km/h
543 01-05-2021 21:10:00 11.1 C 5.04 g/m*3 11.1 C 3.2 km/h
544 01-05-2021 21:15:00 11.1 C 5.24 g/m*3 11.1 C 1.6 km/h
545 01-05-2021 21:20:00 11.1 C 5.44 g/m*3 11.1 C 3.2 km/h
546 01-05-2021 21:25:00 10.9 C 5.47 g/m*3 10.9 C 0 km/h
547 01-05-2021 21:30:00 10.8 C 5.54 g/m*3 10.8 C 0 km/h
548 01-05-2021 21:35:00 10.6 C 5.56 g/m*3 10.6 C 0 km/h
549 01-05-2021 21:40:00 10.4 C 5.2 g/m*3 10.4 C 3.2 km/h
550 01-05-2021 21:45:00 10.3 C 5.08 g/m*3 9.72 C 6.4 km/h
Sensor: Nr:Datum:Temp:Abs-Feuchte:Windchill:Wind:
Aussen-T/F 551 01-05-2021 21:50:00 10.4 C 5.4 g/m*3 9.83 C 6.4 km/h
552 01-05-2021 21:55:00 10.4 C 5.3 g/m*3 10.4 C 3.2 km/h
553 01-05-2021 22:00:00 10.4 C 5.2 g/m*3 10.4 C 4.8 km/h
554 01-05-2021 22:05:00 10.5 C 5.43 g/m*3 10.5 C 1.6 km/h
555 01-05-2021 22:10:00 10.4 C 5.2 g/m*3 10.4 C 1.6 km/h
556 01-05-2021 22:15:00 10.4 C 5.3 g/m*3 10.4 C 3.2 km/h
557 01-05-2021 22:20:00 10.3 C 5.17 g/m*3 10.3 C 3.2 km/h
558 01-05-2021 22:25:00 10.3 C 5.08 g/m*3 10.3 C 4.8 km/h
559 01-05-2021 22:30:00 10.4 C 5.2 g/m*3 10.4 C 4.8 km/h
560 01-05-2021 22:35:00 10.4 C 5.3 g/m*3 10.4 C 4.8 km/h
561 01-05-2021 22:40:00 10.4 C 5.2 g/m*3 10.4 C 3.2 km/h
562 01-05-2021 22:45:00 10.4 C 5.4 g/m*3 10.4 C 0 km/h
563 01-05-2021 22:50:00 10.3 C 5.46 g/m*3 10.3 C 0 km/h
564 01-05-2021 22:55:00 10.2 C 5.52 g/m*3 10.2 C 3.2 km/h
565 01-05-2021 23:00:00 10.1 C 5.58 g/m*3 10.1 C 3.2 km/h
566 01-05-2021 23:05:00 10 C 5.45 g/m*3 10 C 3.2 km/h
567 01-05-2021 23:10:00 10 C 5.26 g/m*3 9.37 C 6.4 km/h
568 01-05-2021 23:15:00 10 C 5.45 g/m*3 10 C 3.2 km/h
569 01-05-2021 23:20:00 10 C 5.45 g/m*3 10 C 4.8 km/h
570 01-05-2021 23:25:00 9.9 C 5.51 g/m*3 9.9 C 1.6 km/h
571 01-05-2021 23:30:00 9.9 C 5.51 g/m*3 9.9 C 1.6 km/h
572 01-05-2021 23:35:00 9.8 C 5.66 g/m*3 9.8 C 4.8 km/h
573 01-05-2021 23:40:00 9.7 C 5.62 g/m*3 9.7 C 4.8 km/h
574 01-05-2021 23:45:00 9.6 C 5.59 g/m*3 9.6 C 1.6 km/h
575 01-05-2021 23:50:00 9.5 C 5.37 g/m*3 8.4 C 8.1 km/h
Sensor: Nr:Datum:Temp:Abs-Feuchte:Windchill:Wind:
Aussen-T/F 576 01-05-2021 23:55:00 9.5 C 5.55 g/m*3 9.5 C 3.2 km/h
577 02-05-2021 00:00:00 9.5 C 5.46 g/m*3 9.5 C 1.6 km/h
578 02-05-2021 00:05:00 9.4 C 5.61 g/m*3 9.4 C 1.6 km/h
579 02-05-2021 00:10:00 9.4 C 5.61 g/m*3 9.4 C 0 km/h
580 02-05-2021 00:15:00 9.3 C 5.66 g/m*3 9.3 C 0 km/h
581 02-05-2021 00:20:00 9.3 C 5.57 g/m*3 9.3 C 4.8 km/h
582 02-05-2021 00:25:00 9.3 C 5.57 g/m*3 9.3 C 4.8 km/h
583 02-05-2021 00:30:00 9.3 C 5.66 g/m*3 9.3 C 0 km/h
584 02-05-2021 00:35:00 9.3 C 5.57 g/m*3 9.3 C 1.6 km/h
585 02-05-2021 00:40:00 9.3 C 5.66 g/m*3 9.3 C 1.6 km/h
586 02-05-2021 00:45:00 9.3 C 5.48 g/m*3 9.3 C 4.8 km/h
587 02-05-2021 00:50:00 9.3 C 5.57 g/m*3 9.3 C 3.2 km/h
588 02-05-2021 00:55:00 9.3 C 5.57 g/m*3 9.3 C 3.2 km/h
589 02-05-2021 01:00:00 9.3 C 5.66 g/m*3 9.3 C 1.6 km/h
590 02-05-2021 01:05:00 9.2 C 5.71 g/m*3 9.2 C 1.6 km/h
591 02-05-2021 01:10:00 9.2 C 5.8 g/m*3 9.2 C 1.6 km/h
592 02-05-2021 01:15:00 9 C 5.73 g/m*3 9 C 4.8 km/h
593 02-05-2021 01:20:00 8.8 C 5.66 g/m*3 8.8 C 4.8 km/h
594 02-05-2021 01:25:00 8.8 C 5.74 g/m*3 8.8 C 1.6 km/h
595 02-05-2021 01:30:00 8.7 C 5.71 g/m*3 8.7 C 3.2 km/h
596 02-05-2021 01:35:00 8.7 C 5.62 g/m*3 8.7 C 4.8 km/h
597 02-05-2021 01:40:00 8.7 C 5.79 g/m*3 8.7 C 4.8 km/h
598 02-05-2021 01:45:00 8.7 C 5.79 g/m*3 8.7 C 1.6 km/h
599 02-05-2021 01:50:00 8.6 C 5.76 g/m*3 8.6 C 3.2 km/h
600 02-05-2021 01:55:00 8.6 C 5.76 g/m*3 7.75 C 6.4 km/h
Sensor: Nr:Datum:Temp:Abs-Feuchte:Windchill:Wind:
Aussen-T/F 601 02-05-2021 02:00:00 8.6 C 5.84 g/m*3 8.6 C 0 km/h
602 02-05-2021 02:05:00 8.5 C 5.81 g/m*3 7.64 C 6.4 km/h
603 02-05-2021 02:10:00 8.5 C 5.81 g/m*3 8.5 C 3.2 km/h
604 02-05-2021 02:15:00 8.5 C 5.81 g/m*3 8.5 C 1.6 km/h
605 02-05-2021 02:20:00 8.4 C 5.85 g/m*3 8.4 C 1.6 km/h
606 02-05-2021 02:25:00 8.4 C 5.85 g/m*3 8.4 C 3.2 km/h
607 02-05-2021 02:30:00 8.2 C 5.86 g/m*3 8.2 C 3.2 km/h
608 02-05-2021 02:35:00 8.2 C 5.86 g/m*3 8.2 C 4.8 km/h
609 02-05-2021 02:40:00 8.1 C 5.91 g/m*3 8.1 C 3.2 km/h
610 02-05-2021 02:45:00 8.1 C 5.91 g/m*3 8.1 C 0 km/h
611 02-05-2021 02:50:00 8 C 5.87 g/m*3 8 C 4.8 km/h
612 02-05-2021 02:55:00 7.9 C 5.91 g/m*3 7.9 C 3.2 km/h
613 02-05-2021 03:00:00 7.8 C 5.96 g/m*3 7.8 C 1.6 km/h
614 02-05-2021 03:05:00 7.6 C 5.88 g/m*3 7.6 C 1.6 km/h
615 02-05-2021 03:10:00 7.5 C 5.92 g/m*3 7.5 C 4.8 km/h
616 02-05-2021 03:15:00 7.5 C 5.92 g/m*3 6.48 C 6.4 km/h
617 02-05-2021 03:20:00 7.6 C 6.04 g/m*3 7.6 C 1.6 km/h
618 02-05-2021 03:25:00 7.6 C 6.04 g/m*3 7.6 C 1.6 km/h
619 02-05-2021 03:30:00 7.6 C 6.04 g/m*3 7.6 C 0 km/h
620 02-05-2021 03:35:00 7.4 C 5.96 g/m*3 6.37 C 6.4 km/h
621 02-05-2021 03:40:00 7.4 C 5.96 g/m*3 7.4 C 1.6 km/h
622 02-05-2021 03:45:00 7.4 C 5.96 g/m*3 7.4 C 0 km/h
623 02-05-2021 03:50:00 7.4 C 5.96 g/m*3 5.02 C 12.9 km/h
624 02-05-2021 03:55:00 7.4 C 5.96 g/m*3 7.4 C 1.6 km/h
625 02-05-2021 04:00:00 7.4 C 5.96 g/m*3 6.37 C 6.4 km/h
Sensor: Nr:Datum:Temp:Abs-Feuchte:Windchill:Wind:
Aussen-T/F 626 02-05-2021 04:05:00 7.4 C 6.04 g/m*3 7.4 C 3.2 km/h
627 02-05-2021 04:10:00 7.4 C 5.96 g/m*3 5.93 C 8.1 km/h
628 02-05-2021 04:15:00 7.5 C 6 g/m*3 6.05 C 8.1 km/h
629 02-05-2021 04:20:00 7.6 C 6.04 g/m*3 7.6 C 3.2 km/h
630 02-05-2021 04:25:00 7.5 C 6 g/m*3 7.5 C 3.2 km/h
631 02-05-2021 04:30:00 7.4 C 5.96 g/m*3 5.28 C 11.3 km/h
632 02-05-2021 04:35:00 7.4 C 6.04 g/m*3 7.4 C 4.8 km/h
633 02-05-2021 04:40:00 7.3 C 6 g/m*3 6.25 C 6.4 km/h
634 02-05-2021 04:45:00 7.3 C 6 g/m*3 4.44 C 16.1 km/h
635 02-05-2021 04:50:00 7.3 C 6 g/m*3 6.25 C 6.4 km/h
636 02-05-2021 04:55:00 7.2 C 6.04 g/m*3 7.2 C 3.2 km/h
637 02-05-2021 05:00:00 7.2 C 6.04 g/m*3 5.69 C 8.1 km/h
638 02-05-2021 05:05:00 7.1 C 6.08 g/m*3 7.1 C 1.6 km/h
639 02-05-2021 05:10:00 6.9 C 6 g/m*3 5.79 C 6.4 km/h
640 02-05-2021 05:15:00 6.9 C 6.08 g/m*3 6.9 C 4.8 km/h
641 02-05-2021 05:20:00 6.8 C 6.04 g/m*3 6.8 C 4.8 km/h
642 02-05-2021 05:25:00 6.7 C 6 g/m*3 6.7 C 3.2 km/h
643 02-05-2021 05:30:00 6.6 C 6.04 g/m*3 6.6 C 1.6 km/h
644 02-05-2021 05:35:00 6.4 C 5.96 g/m*3 6.4 C 4.8 km/h
645 02-05-2021 05:40:00 6.3 C 5.92 g/m*3 6.3 C 1.6 km/h
646 02-05-2021 05:45:00 6.2 C 5.96 g/m*3 6.2 C 0 km/h
647 02-05-2021 05:50:00 6.1 C 5.92 g/m*3 6.1 C 3.2 km/h
648 02-05-2021 05:55:00 5.9 C 5.84 g/m*3 5.9 C 0 km/h
649 02-05-2021 06:00:00 5.8 C 5.87 g/m*3 5.8 C 0 km/h
650 02-05-2021 06:05:00 5.7 C 5.91 g/m*3 5.7 C 1.6 km/h
Sensor: Nr:Datum:Temp:Abs-Feuchte:Windchill:Wind:
Aussen-T/F 651 02-05-2021 06:10:00 5.6 C 5.87 g/m*3 5.6 C 1.6 km/h
652 02-05-2021 06:15:00 5.5 C 5.83 g/m*3 5.5 C 0 km/h
653 02-05-2021 06:20:00 5.4 C 5.86 g/m*3 5.4 C 3.2 km/h
654 02-05-2021 06:25:00 5.4 C 5.86 g/m*3 4.06 C 6.4 km/h
655 02-05-2021 06:30:00 5.5 C 5.97 g/m*3 5.5 C 1.6 km/h
656 02-05-2021 06:35:00 5.6 C 6.01 g/m*3 5.6 C 1.6 km/h
657 02-05-2021 06:40:00 5.7 C 6.05 g/m*3 5.7 C 1.6 km/h
658 02-05-2021 06:45:00 5.7 C 6.05 g/m*3 5.7 C 0 km/h
659 02-05-2021 06:50:00 5.7 C 6.12 g/m*3 5.7 C 0 km/h
660 02-05-2021 06:55:00 5.7 C 6.05 g/m*3 5.7 C 0 km/h
661 02-05-2021 07:00:00 5.7 C 6.05 g/m*3 5.7 C 0 km/h
662 02-05-2021 07:05:00 5.6 C 6.08 g/m*3 5.6 C 3.2 km/h
663 02-05-2021 07:10:00 5.7 C 6.12 g/m*3 5.7 C 3.2 km/h
664 02-05-2021 07:15:00 5.8 C 6.16 g/m*3 5.8 C 1.6 km/h
665 02-05-2021 07:20:00 5.8 C 6.16 g/m*3 5.8 C 0 km/h
666 02-05-2021 07:25:00 5.8 C 6.16 g/m*3 5.8 C 0 km/h
667 02-05-2021 07:30:00 5.8 C 6.16 g/m*3 5.8 C 0 km/h
668 02-05-2021 07:35:00 5.9 C 6.2 g/m*3 5.9 C 0 km/h
669 02-05-2021 07:40:00 6 C 6.31 g/m*3 4.75 C 6.4 km/h
670 02-05-2021 07:45:00 6.2 C 6.32 g/m*3 6.2 C 4.8 km/h
671 02-05-2021 07:50:00 6.3 C 6.37 g/m*3 6.3 C 1.6 km/h
672 02-05-2021 07:55:00 6.4 C 6.33 g/m*3 6.4 C 0 km/h
673 02-05-2021 08:00:00 6.6 C 6.34 g/m*3 6.6 C 4.8 km/h
674 02-05-2021 08:05:00 6.7 C 6.38 g/m*3 6.7 C 1.6 km/h
675 02-05-2021 08:10:00 6.8 C 6.42 g/m*3 6.8 C 0 km/h
Sensor: Nr:Datum:Temp:Abs-Feuchte:Windchill:Wind:
Aussen-T/F 676 02-05-2021 08:15:00 7.1 C 6.55 g/m*3 7.1 C 4.8 km/h
677 02-05-2021 08:20:00 7.2 C 6.52 g/m*3 7.2 C 4.8 km/h
678 02-05-2021 08:25:00 7.2 C 6.36 g/m*3 5.35 C 9.7 km/h
679 02-05-2021 08:30:00 7.2 C 6.36 g/m*3 5.04 C 11.3 km/h
680 02-05-2021 08:35:00 7.3 C 6.32 g/m*3 5.81 C 8.1 km/h
681 02-05-2021 08:40:00 7.3 C 6.32 g/m*3 7.3 C 4.8 km/h
682 02-05-2021 08:45:00 7.3 C 6.32 g/m*3 6.25 C 6.4 km/h
683 02-05-2021 08:50:00 7.4 C 6.44 g/m*3 5.58 C 9.7 km/h
684 02-05-2021 08:55:00 7.5 C 6.4 g/m*3 7.5 C 4.8 km/h
685 02-05-2021 09:00:00 7.6 C 6.44 g/m*3 5.53 C 11.3 km/h
686 02-05-2021 09:05:00 7.7 C 6.41 g/m*3 5.94 C 9.7 km/h
687 02-05-2021 09:10:00 7.7 C 6.41 g/m*3 6.28 C 8.1 km/h
688 02-05-2021 09:15:00 7.7 C 6.41 g/m*3 6.28 C 8.1 km/h
689 02-05-2021 09:20:00 7.7 C 6.41 g/m*3 6.28 C 8.1 km/h
690 02-05-2021 09:25:00 7.7 C 6.41 g/m*3 6.71 C 6.4 km/h
691 02-05-2021 09:30:00 7.8 C 6.37 g/m*3 5.77 C 11.3 km/h
692 02-05-2021 09:35:00 7.9 C 6.49 g/m*3 7.9 C 4.8 km/h
693 02-05-2021 09:40:00 8 C 6.37 g/m*3 6.64 C 8.1 km/h
694 02-05-2021 09:45:00 8 C 6.28 g/m*3 6.3 C 9.7 km/h
695 02-05-2021 09:50:00 8.1 C 6.24 g/m*3 5.87 C 12.9 km/h
696 02-05-2021 09:55:00 8.1 C 6.16 g/m*3 5.87 C 12.9 km/h
697 02-05-2021 10:00:00 8.1 C 6.07 g/m*3 6.42 C 9.7 km/h
698 02-05-2021 10:05:00 8.1 C 6.07 g/m*3 6.13 C 11.3 km/h
699 02-05-2021 10:10:00 8.2 C 6.11 g/m*3 6.54 C 9.7 km/h
700 02-05-2021 10:15:00 8.3 C 5.9 g/m*3 6.37 C 11.3 km/h
Sensor: Nr:Datum:Temp:Abs-Feuchte:Windchill:Wind:
Aussen-T/F 701 02-05-2021 10:20:00 8.4 C 5.85 g/m*3 6.01 C 14.5 km/h
702 02-05-2021 10:25:00 8.4 C 5.77 g/m*3 6.24 C 12.9 km/h
703 02-05-2021 10:30:00 8.4 C 5.6 g/m*3 6.24 C 12.9 km/h
704 02-05-2021 10:35:00 8.3 C 5.56 g/m*3 6.66 C 9.7 km/h
705 02-05-2021 10:40:00 8.6 C 5.59 g/m*3 6.05 C 16.1 km/h
706 02-05-2021 10:45:00 8.6 C 5.67 g/m*3 5.86 C 17.7 km/h
707 02-05-2021 10:50:00 8.5 C 5.72 g/m*3 5.73 C 17.7 km/h
708 02-05-2021 10:55:00 8.4 C 5.85 g/m*3 6.49 C 11.3 km/h
709 02-05-2021 11:00:00 8.4 C 5.85 g/m*3 7.11 C 8.1 km/h
710 02-05-2021 11:05:00 8.4 C 5.85 g/m*3 6.49 C 11.3 km/h
711 02-05-2021 11:10:00 8.5 C 5.98 g/m*3 6.61 C 11.3 km/h
712 02-05-2021 11:15:00 8.6 C 6.02 g/m*3 6.48 C 12.9 km/h
713 02-05-2021 11:20:00 8.6 C 5.93 g/m*3 6.48 C 12.9 km/h
714 02-05-2021 11:25:00 8.7 C 5.71 g/m*3 5.98 C 17.7 km/h
715 02-05-2021 11:30:00 8.7 C 5.79 g/m*3 7.13 C 9.7 km/h
716 02-05-2021 11:35:00 8.8 C 5.83 g/m*3 6.72 C 12.9 km/h
717 02-05-2021 11:40:00 8.8 C 5.92 g/m*3 7.58 C 8.1 km/h
718 02-05-2021 11:45:00 8.8 C 5.83 g/m*3 7.98 C 6.4 km/h
719 02-05-2021 11:50:00 9 C 5.82 g/m*3 7.49 C 9.7 km/h
720 02-05-2021 11:55:00 9.1 C 5.77 g/m*3 7.61 C 9.7 km/h
721 02-05-2021 12:00:00 9.1 C 5.59 g/m*3 7.33 C 11.3 km/h
722 02-05-2021 12:05:00 9 C 5.64 g/m*3 6.75 C 14.5 km/h
723 02-05-2021 12:10:00 9 C 5.73 g/m*3 8.21 C 6.4 km/h
724 02-05-2021 12:15:00 9.1 C 5.77 g/m*3 7.93 C 8.1 km/h
725 02-05-2021 12:20:00 9.2 C 5.8 g/m*3 7.46 C 11.3 km/h
Sensor: Nr:Datum:Temp:Abs-Feuchte:Windchill:Wind:
Aussen-T/F 726 02-05-2021 12:25:00 9.3 C 5.75 g/m*3 8.56 C 6.4 km/h
727 02-05-2021 12:30:00 9.3 C 5.84 g/m*3 8.16 C 8.1 km/h
728 02-05-2021 12:35:00 9.4 C 5.79 g/m*3 8.28 C 8.1 km/h
729 02-05-2021 12:40:00 9.4 C 5.61 g/m*3 7.7 C 11.3 km/h
730 02-05-2021 12:45:00 9.4 C 5.61 g/m*3 7.97 C 9.7 km/h
731 02-05-2021 12:50:00 9.7 C 5.62 g/m*3 7.82 C 12.9 km/h
732 02-05-2021 12:55:00 9.7 C 5.62 g/m*3 8.63 C 8.1 km/h
733 02-05-2021 13:00:00 9.8 C 5.66 g/m*3 9.8 C 4.8 km/h
734 02-05-2021 13:05:00 9.8 C 5.66 g/m*3 7.36 C 17.7 km/h
735 02-05-2021 13:10:00 9.8 C 5.57 g/m*3 8.18 C 11.3 km/h
736 02-05-2021 13:15:00 9.8 C 5.47 g/m*3 7.54 C 16.1 km/h
737 02-05-2021 13:20:00 9.8 C 5.47 g/m*3 8.45 C 9.7 km/h
738 02-05-2021 13:25:00 9.8 C 5.57 g/m*3 8.45 C 9.7 km/h
739 02-05-2021 13:30:00 9.9 C 5.7 g/m*3 8.87 C 8.1 km/h
740 02-05-2021 13:35:00 10.1 C 5.67 g/m*3 8.8 C 9.7 km/h
741 02-05-2021 13:40:00 10.3 C 5.55 g/m*3 9.04 C 9.7 km/h
742 02-05-2021 13:45:00 10.6 C 5.56 g/m*3 8.92 C 12.9 km/h
743 02-05-2021 13:50:00 10.7 C 5.5 g/m*3 8.84 C 14.5 km/h
744 02-05-2021 13:55:00 10.7 C 5.5 g/m*3 9.26 C 11.3 km/h
745 02-05-2021 14:00:00 10.6 C 5.27 g/m*3 9.4 C 9.7 km/h
746 02-05-2021 14:05:00 10.6 C 5.37 g/m*3 9.4 C 9.7 km/h
747 02-05-2021 14:10:00 10.6 C 5.37 g/m*3 9.14 C 11.3 km/h
748 02-05-2021 14:15:00 10.7 C 5.4 g/m*3 8.84 C 14.5 km/h
749 02-05-2021 14:20:00 10.6 C 5.27 g/m*3 8.71 C 14.5 km/h
750 02-05-2021 14:25:00 10.6 C 4.98 g/m*3 8.71 C 14.5 km/h
Sensor: Nr:Datum:Temp:Abs-Feuchte:Windchill:Wind:
Aussen-T/F 751 02-05-2021 14:30:00 10.6 C 5.17 g/m*3 9.69 C 8.1 km/h
752 02-05-2021 14:35:00 10.7 C 5.4 g/m*3 8.48 C 17.7 km/h
753 02-05-2021 14:40:00 10.8 C 5.24 g/m*3 8.78 C 16.1 km/h
754 02-05-2021 14:45:00 10.9 C 5.47 g/m*3 10.04 C 8.1 km/h
755 02-05-2021 14:50:00 11.1 C 5.44 g/m*3 11.1 C 11.3 km/h
756 02-05-2021 14:55:00 11.1 C 5.34 g/m*3 11.1 C 12.9 km/h
757 02-05-2021 15:00:00 11.2 C 5.47 g/m*3 11.2 C 14.5 km/h
758 02-05-2021 15:05:00 11.2 C 5.17 g/m*3 11.2 C 11.3 km/h
759 02-05-2021 15:10:00 11.2 C 5.17 g/m*3 11.2 C 11.3 km/h
760 02-05-2021 15:15:00 11.1 C 5.34 g/m*3 11.1 C 8.1 km/h
761 02-05-2021 15:20:00 11.2 C 5.17 g/m*3 11.2 C 11.3 km/h
762 02-05-2021 15:25:00 11.2 C 5.17 g/m*3 11.2 C 11.3 km/h
763 02-05-2021 15:30:00 11.2 C 5.07 g/m*3 11.2 C 8.1 km/h
764 02-05-2021 15:35:00 11.3 C 5.1 g/m*3 11.3 C 6.4 km/h
765 02-05-2021 15:40:00 11.4 C 5.13 g/m*3 11.4 C 6.4 km/h
766 02-05-2021 15:45:00 11.7 C 5.12 g/m*3 11.7 C 9.7 km/h
767 02-05-2021 15:50:00 12.1 C 5.04 g/m*3 12.1 C 14.5 km/h
768 02-05-2021 15:55:00 12.2 C 4.96 g/m*3 12.2 C 11.3 km/h
769 02-05-2021 16:00:00 11.9 C 4.87 g/m*3 11.9 C 14.5 km/h
770 02-05-2021 16:05:00 11.9 C 4.98 g/m*3 11.9 C 11.3 km/h
771 02-05-2021 16:10:00 12.1 C 5.04 g/m*3 12.1 C 11.3 km/h
772 02-05-2021 16:15:00 12.1 C 5.15 g/m*3 12.1 C 9.7 km/h
773 02-05-2021 16:20:00 11.9 C 4.98 g/m*3 11.9 C 11.3 km/h
774 02-05-2021 16:25:00 11.7 C 5.23 g/m*3 11.7 C 14.5 km/h
775 02-05-2021 16:30:00 11.4 C 5.13 g/m*3 11.4 C 14.5 km/h
Sensor: Nr:Datum:Temp:Abs-Feuchte:Windchill:Wind:
Aussen-T/F 776 02-05-2021 16:35:00 11.3 C 5.1 g/m*3 11.3 C 16.1 km/h
777 02-05-2021 16:40:00 11.4 C 5.13 g/m*3 11.4 C 16.1 km/h
778 02-05-2021 16:45:00 11.4 C 5.13 g/m*3 11.4 C 12.9 km/h
779 02-05-2021 16:50:00 11.4 C 5.13 g/m*3 11.4 C 12.9 km/h
780 02-05-2021 16:55:00 11.3 C 5.3 g/m*3 11.3 C 11.3 km/h
781 02-05-2021 17:00:00 11.8 C 5.37 g/m*3 11.8 C 14.5 km/h
782 02-05-2021 17:05:00 12.4 C 5.24 g/m*3 12.4 C 8.1 km/h
783 02-05-2021 17:10:00 13.2 C 5.28 g/m*3 13.2 C 9.7 km/h
784 02-05-2021 17:15:00 13.2 C 5.17 g/m*3 13.2 C 17.7 km/h
785 02-05-2021 17:20:00 12.4 C 5.24 g/m*3 12.4 C 14.5 km/h
786 02-05-2021 17:25:00 12.2 C 5.4 g/m*3 12.2 C 11.3 km/h
787 02-05-2021 17:30:00 12.1 C 5.36 g/m*3 12.1 C 4.8 km/h
788 02-05-2021 17:35:00 12 C 5.33 g/m*3 12 C 12.9 km/h
789 02-05-2021 17:40:00 11.9 C 5.19 g/m*3 11.9 C 12.9 km/h
790 02-05-2021 17:45:00 11.6 C 4.99 g/m*3 11.6 C 17.7 km/h
791 02-05-2021 17:50:00 11.3 C 5.1 g/m*3 11.3 C 9.7 km/h
792 02-05-2021 17:55:00 11.2 C 5.07 g/m*3 11.2 C 9.7 km/h
793 02-05-2021 18:00:00 11.1 C 5.04 g/m*3 11.1 C 6.4 km/h
794 02-05-2021 18:05:00 11.1 C 5.14 g/m*3 11.1 C 6.4 km/h
795 02-05-2021 18:10:00 11.1 C 5.24 g/m*3 11.1 C 6.4 km/h
796 02-05-2021 18:15:00 11.2 C 5.37 g/m*3 11.2 C 4.8 km/h
797 02-05-2021 18:20:00 11.2 C 5.17 g/m*3 11.2 C 12.9 km/h
798 02-05-2021 18:25:00 11.3 C 5.41 g/m*3 11.3 C 4.8 km/h
799 02-05-2021 18:30:00 11.3 C 5.3 g/m*3 11.3 C 8.1 km/h
800 02-05-2021 18:35:00 11.6 C 5.4 g/m*3 11.6 C 12.9 km/h
Sensor: Nr:Datum:Temp:Abs-Feuchte:Windchill:Wind:
Aussen-T/F 801 02-05-2021 18:40:00 11.8 C 5.26 g/m*3 11.8 C 14.5 km/h
802 02-05-2021 18:45:00 12.1 C 5.47 g/m*3 12.1 C 12.9 km/h
803 02-05-2021 18:50:00 12.1 C 5.25 g/m*3 12.1 C 11.3 km/h
804 02-05-2021 18:55:00 11.8 C 5.26 g/m*3 11.8 C 8.1 km/h
805 02-05-2021 19:00:00 11.4 C 5.54 g/m*3 11.4 C 14.5 km/h
806 02-05-2021 19:05:00 10.9 C 5.67 g/m*3 8.73 C 17.7 km/h
807 02-05-2021 19:10:00 10.5 C 5.72 g/m*3 8.59 C 14.5 km/h
808 02-05-2021 19:15:00 10.2 C 5.71 g/m*3 9.22 C 8.1 km/h
809 02-05-2021 19:20:00 10.1 C 5.77 g/m*3 8.8 C 9.7 km/h
810 02-05-2021 19:25:00 10.1 C 5.77 g/m*3 9.1 C 8.1 km/h
811 02-05-2021 19:30:00 10.2 C 5.8 g/m*3 10.2 C 3.2 km/h
812 02-05-2021 19:35:00 10.3 C 5.75 g/m*3 10.3 C 4.8 km/h
813 02-05-2021 19:40:00 10.6 C 5.86 g/m*3 10.6 C 4.8 km/h
814 02-05-2021 19:45:00 10.7 C 5.6 g/m*3 10.7 C 4.8 km/h
815 02-05-2021 19:50:00 10.7 C 5.7 g/m*3 10.18 C 6.4 km/h
816 02-05-2021 19:55:00 10.7 C 5.7 g/m*3 10.7 C 4.8 km/h
817 02-05-2021 20:00:00 10.7 C 5.8 g/m*3 10.18 C 6.4 km/h
818 02-05-2021 20:05:00 10.6 C 5.76 g/m*3 10.06 C 6.4 km/h
819 02-05-2021 20:10:00 10.5 C 5.72 g/m*3 9.95 C 6.4 km/h
820 02-05-2021 20:15:00 10.3 C 5.65 g/m*3 10.3 C 1.6 km/h
821 02-05-2021 20:20:00 10.2 C 5.71 g/m*3 10.2 C 4.8 km/h
822 02-05-2021 20:25:00 10.1 C 5.77 g/m*3 10.1 C 4.8 km/h
823 02-05-2021 20:30:00 9.9 C 5.88 g/m*3 9.9 C 0 km/h
824 02-05-2021 20:35:00 9.7 C 5.9 g/m*3 9.7 C 1.6 km/h
825 02-05-2021 20:40:00 9.4 C 5.88 g/m*3 9.4 C 1.6 km/h
Sensor: Nr:Datum:Temp:Abs-Feuchte:Windchill:Wind:
Aussen-T/F 826 02-05-2021 20:45:00 9.2 C 5.8 g/m*3 9.2 C 0 km/h
827 02-05-2021 20:50:00 8.9 C 5.78 g/m*3 8.9 C 0 km/h
828 02-05-2021 20:55:00 8.7 C 5.79 g/m*3 8.7 C 3.2 km/h
829 02-05-2021 21:00:00 8.4 C 5.68 g/m*3 8.4 C 1.6 km/h
830 02-05-2021 21:05:00 8.1 C 5.66 g/m*3 8.1 C 1.6 km/h
831 02-05-2021 21:10:00 7.8 C 5.63 g/m*3 7.8 C 3.2 km/h
832 02-05-2021 21:15:00 7.6 C 5.56 g/m*3 7.6 C 3.2 km/h
833 02-05-2021 21:20:00 7.3 C 5.53 g/m*3 7.3 C 3.2 km/h
834 02-05-2021 21:25:00 7.2 C 5.57 g/m*3 7.2 C 0 km/h
835 02-05-2021 21:30:00 6.9 C 5.47 g/m*3 6.9 C 1.6 km/h
836 02-05-2021 21:35:00 6.8 C 5.51 g/m*3 6.8 C 1.6 km/h
837 02-05-2021 21:40:00 6.6 C 5.44 g/m*3 6.6 C 3.2 km/h
838 02-05-2021 21:45:00 6.5 C 5.47 g/m*3 6.5 C 1.6 km/h
839 02-05-2021 21:50:00 6.4 C 5.44 g/m*3 6.4 C 1.6 km/h
840 02-05-2021 21:55:00 6.3 C 5.48 g/m*3 6.3 C 0 km/h
841 02-05-2021 22:00:00 6.2 C 5.44 g/m*3 6.2 C 3.2 km/h
842 02-05-2021 22:05:00 6.1 C 5.48 g/m*3 6.1 C 3.2 km/h
843 02-05-2021 22:10:00 6 C 5.44 g/m*3 6 C 4.8 km/h
844 02-05-2021 22:15:00 5.9 C 5.48 g/m*3 5.9 C 4.8 km/h
845 02-05-2021 22:20:00 5.8 C 5.44 g/m*3 5.8 C 3.2 km/h
846 02-05-2021 22:25:00 5.7 C 5.41 g/m*3 5.7 C 1.6 km/h
847 02-05-2021 22:30:00 5.5 C 5.41 g/m*3 5.5 C 1.6 km/h
848 02-05-2021 22:35:00 5.3 C 5.41 g/m*3 5.3 C 0 km/h
849 02-05-2021 22:40:00 5.2 C 5.37 g/m*3 5.2 C 0 km/h
850 02-05-2021 22:45:00 5.1 C 5.4 g/m*3 5.1 C 0 km/h
Sensor: Nr:Datum:Temp:Abs-Feuchte:Windchill:Wind:
Aussen-T/F 851 02-05-2021 22:50:00 4.9 C 5.33 g/m*3 4.9 C 1.6 km/h
852 02-05-2021 22:55:00 4.7 C 5.33 g/m*3 4.7 C 0 km/h
853 02-05-2021 23:00:00 4.6 C 5.29 g/m*3 4.6 C 0 km/h
854 02-05-2021 23:05:00 4.5 C 5.32 g/m*3 4.5 C 0 km/h
855 02-05-2021 23:10:00 4.4 C 5.29 g/m*3 4.4 C 0 km/h
856 02-05-2021 23:15:00 4.3 C 5.32 g/m*3 4.3 C 0 km/h
857 02-05-2021 23:20:00 4.2 C 5.28 g/m*3 4.2 C 0 km/h
858 02-05-2021 23:25:00 4.1 C 5.31 g/m*3 4.1 C 1.6 km/h
859 02-05-2021 23:30:00 4 C 5.28 g/m*3 4 C 3.2 km/h
860 02-05-2021 23:35:00 3.9 C 5.31 g/m*3 3.9 C 1.6 km/h
861 02-05-2021 23:40:00 3.9 C 5.31 g/m*3 3.9 C 3.2 km/h
862 02-05-2021 23:45:00 3.9 C 5.31 g/m*3 3.9 C 1.6 km/h
863 02-05-2021 23:50:00 3.9 C 5.31 g/m*3 3.9 C 0 km/h
864 02-05-2021 23:55:00 3.9 C 5.31 g/m*3 3.9 C 0 km/h

Legende:
   Min
   Max


Maximal/Minimal-Werte vom 30.04.2021 - 02.05.2021

Sensor Min Max Avg
Temp
(Aussen-T/F)
1.8 °C
30-04-2021  04:50:00
15.6 °C
30-04-2021  16:20:00
8.92 °C
Abs-Feuchte
(Aussen-T/F)
4.86 g/m*3
01-05-2021  20:10:00
7.14 g/m*3
01-05-2021  07:55:00
5.95 g/m*3
Windchill
(Aussen-T/F)
0.01 C
30-04-2021  04:55:00
15.6 C
30-04-2021  16:20:00
8.56 C

Die Daten stammen von einer Davis Vantage Pro 2 Wetter-Station und werden unter Linux mit der Software wview2wettercgi und aufbereitet. Alle Angaben erfolgen ohne Gewähr für ihre Vollständigkeit oder Richtigkeit.
Kontakt: Rainer Krienke krienke@uni-koblenz.de . Meine Webseiten an der Uni Koblenz oder privat.
Version: $Revision: 0.78 $